Tiempo atmosférico en la estación meteorológica de Castell, Platja d'Aro, Girona (14 m.)

Fecha
DESCASC
Temp. máxima en grados centígrados (hora)
DESCASC
Temp. mínima en grados centígrados (hora)
DESCASC
Temp. media en grados centígrados
DESCASC
Racha de viento máxima en m/sg (hora)
DESCASC
Velocidad máxima media en intervalos de 10 minutos(hora)
DESCASC
Precipitaciones diarias en mm
DESCASC
Precipitaciones de 00:00 a 06:00 en mm
DESCASC
Precipitaciones de 06:00 a 12:00 en mm
DESCASC
Precipitaciones de 12:00 a 18:00 en mm
DESCASC
Precipitaciones de 18:00 a 24:00 en mm
DESCASC
17-08-2017 29.3 (16:20) 19.3 (07:20) 24.3 6.39 (13:30) 3.89 (14:00) 0 0 0 0 0
16-08-2017 26.2 (11:20) 20 (07:20) 23.1 6.67 (16:00) 3.61 (12:00) 0 0 0 0 0
15-08-2017 27.3 (16:10) 17.6 (00:00) 22.4 7.22 (15:50) 4.17 (14:50) 0 0 0 0 0
14-08-2017 28.1 (15:10) 18 (06:50) 23.1 11.39 (13:30) 6.67 (13:30) 0 0 0 0 0
13-08-2017 26.7 (13:30) 16.6 (00:00) 21.7 8.61 (17:10) 4.72 (17:00) 0 0 0 0 0
12-08-2017 25.1 (13:20) 16.6 (00:00) 20.9 7.22 (18:50) 3.89 (19:20) 0 0 0 0 0
11-08-2017 24.8 (14:10) 14.6 (00:00) 19.7 6.67 (13:40) 3.61 (13:20) 0.2 0 0 0 0.2
10-08-2017 24.9 (14:30) 16.7 (00:00) 20.8 11.39 (07:40) 5.83 (02:00) 8.2 0 0 0 8.2
09-08-2017 26.1 (17:00) 17.5 (00:00) 21.8 12.5 (20:20) 6.11 (21:10) 0 0 0 0 0
08-08-2017 26 (00:40) 22.6 (00:00) 24.3 14.17 (20:30) 6.39 (21:00) 0 0 0 0 0
07-08-2017 29.2 (15:00) 20.8 (00:00) 25 14.17 (16:20) 6.94 (15:40) 0 0 0 0 0
06-08-2017 31 (13:30) 22.7 (00:00) 26.9 9.72 (09:20) 4.72 (09:20) 0 0 0 0 0
05-08-2017 32 (11:30) 22.3 (00:00) 27.1 7.78 (14:30) 4.17 (14:30) 0 0 0 0 0
04-08-2017 31.7 (13:40) 20.7 (00:00) 26.2 6.11 (08:40) 3.33 (08:40) 0 0 0 0 0
03-08-2017 30.2 (11:00) 21.4 (00:00) 25.8 9.72 (12:50) 5 (12:50) 0 0 0 0 0
02-08-2017 30.9 (17:50) 20.6 (00:00) 25.8 7.5 (12:40) 4.17 (12:40) 0 0 0 0 0
01-08-2017 29.6 (12:20) 21.7 (00:00) 25.7 6.94 (15:50) 3.61 (14:10) 0.2 0 0 0 0.2
31-07-2017 29.2 (12:40) 18.7 (00:00) 24 9.17 (16:10) 5 (16:10) 0 0 0 0 0
30-07-2017 27.1 (14:50) 20.3 (00:00) 23.7 7.22 (13:10) 4.17 (13:50) 0 0 0 0 0
29-07-2017 28.9 (13:40) 18.9 (00:00) 23.9 10.28 (14:50) 5.83 (14:50) 0 0 0 0 0
28-07-2017 28.5 (13:20) 20.1 (00:00) 24.3 7.78 (13:40) 4.72 (15:00) 0 0 0 0 0
27-07-2017 28.5 (15:50) 17.6 (00:00) 23.1 10 (14:20) 5.56 (15:30) 0 0 0 0 0
26-07-2017 26.5 (12:20) 18.5 (00:00) 22.5 9.17 (05:40) 4.72 (05:40) 10.4 10.4 0 0 0
25-07-2017 28.7 (12:40) 20.4 (00:00) 24.6 10.83 (05:40) 5.28 (05:40) 0 0 0 0 0
24-07-2017 27 (15:00) 17.6 (00:00) 22.3 7.22 (15:40) 3.61 (16:30) 0 0 0 0 0
23-07-2017 28.2 (10:40) 20.4 (00:00) 24.3 7.78 (14:10) 4.72 (13:20) 0.6 0 0 0.4 0.2
22-07-2017 28.1 (15:40) 18.6 (00:00) 23.4 8.33 (17:10) 4.44 (16:20) 0 0 0 0 0

Gráficas

Temp. máximas Temp. mínimas Temp. medias Precipitaciones Rachas de viento máximas Velocidades máximas media en intervalos de 10 minutos

Datos horarios

Fecha y hora oficial Temperatura (ºC) Velocidad del viento (km/h) Dirección del viento Racha (km/h) Dirección de racha Precipitación (mm) Presión (hPa) Tendencia (hPa) Humedad (%)
2017-08-20 23:00:00 22 3 Oeste 10 Oeste 0 -- -- 74
2017-08-20 22:00:00 23.1 5 Oeste 12 Oeste 0 -- -- 70
2017-08-20 21:00:00 24.5 4 Oeste 19 Sur 0 -- -- 66
2017-08-20 20:00:00 25.2 10 Sur 24 Sur 0 -- -- 62
2017-08-20 19:00:00 26.1 12 Sur 21 Sudoeste 0 -- -- 55
2017-08-20 18:00:00 26.9 8 Sudeste 21 Sur 0 -- -- 46
2017-08-20 17:00:00 27.4 8 Sudeste 25 Sudeste 0 -- -- 46
2017-08-20 16:00:00 27.5 10 Este 21 Sudeste 0 -- -- 41
2017-08-20 15:00:00 27.6 9 Sudeste 22 Este 0 -- -- 39
2017-08-20 14:00:00 27.5 11 Este 24 Este 0 -- -- 41
2017-08-20 13:00:00 28 13 Este 27 Sudeste 0 -- -- 41
2017-08-20 12:00:00 27 5 Norte 15 Sudeste 0 -- -- 41
2017-08-20 11:00:00 25.1 6 Oeste 21 Norte 0 -- -- 43
2017-08-20 10:00:00 22.6 15 Norte 35 Norte 0 -- -- 44
2017-08-20 09:00:00 22.5 16 Norte 34 Norte 0 -- -- 42
2017-08-20 08:00:00 21.7 2 Oeste 12 Noroeste 0 -- -- 50
2017-08-20 07:00:00 22.2 3 Oeste 21 Noroeste 0 -- -- 46
2017-08-20 06:00:00 22.2 7 Noroeste 22 Noroeste 0 -- -- 46
2017-08-20 05:00:00 21.4 5 Oeste 14 Oeste 0 -- -- 57
2017-08-20 04:00:00 21 4 Oeste 10 Sudoeste 0 -- -- 63
2017-08-20 03:00:00 20.7 5 Oeste 12 Oeste 0 -- -- 65
2017-08-20 02:00:00 21.4 3 Noroeste 13 Oeste 0 -- -- 65
2017-08-20 01:00:00 22.7 4 Oeste 9 Sudoeste 0 -- -- 59
2017-08-20 00:00:00 22.9 2 Oeste 8 Oeste 0 -- -- 59
2017-08-19 23:00:00 23.3 3 Noroeste 11 Norte 0 -- -- 54
2017-08-19 22:00:00 24.4 3 Sudoeste 5 Sur 0 -- -- 70
2017-08-19 21:00:00 25.2 0 Calma 8 Sudoeste 0 -- -- 66
2017-08-19 20:00:00 25.5 3 Sudoeste 13 Sudeste 0 -- -- 62
2017-08-19 19:00:00 25.8 4 Este 12 Este 0 -- -- 58
2017-08-19 18:00:00 26.6 6 Sudeste 14 Sudeste 0 -- -- 57
2017-08-19 17:00:00 27 9 Este 19 Este 0 -- -- 54
2017-08-19 16:00:00 27.4 12 Este 21 Este 0 -- -- 53
2017-08-19 15:00:00 27.5 11 Este 23 Este 0 -- -- 50
2017-08-19 14:00:00 26.6 13 Este 27 Este 0 -- -- 52
2017-08-19 13:00:00 26.8 9 Este 20 Este 0 -- -- 53
2017-08-19 12:00:00 26.8 7 Nordeste 27 Nordeste 0 -- -- 51
2017-08-19 11:00:00 25.6 10 Norte 22 Noroeste 0 -- -- 52
2017-08-19 10:00:00 25.1 3 Oeste 18 Noroeste 0 -- -- 57
2017-08-19 09:00:00 22.4 10 Noroeste 22 Norte 0 -- -- 63
2017-08-19 08:00:00 21.8 6 Noroeste 32 Norte 0.2 -- -- 67
2017-08-19 07:00:00 22.7 19 Noroeste 38 Norte 0 -- -- 62
2017-08-19 06:00:00 22.9 8 Noroeste 29 Noroeste 0 -- -- 67
2017-08-19 05:00:00 24.4 14 Noroeste 33 Noroeste 0 -- -- 62
2017-08-19 04:00:00 24.3 13 Norte 30 Noroeste 0 -- -- 63
2017-08-19 03:00:00 22.8 3 Oeste 8 Oeste 0 -- -- 75
2017-08-19 02:00:00 22.9 4 Oeste 9 Oeste 0 -- -- 74
2017-08-19 01:00:00 23.4 3 Oeste 6 Sur 0 -- -- 74
2017-08-19 00:00:00 24.3 3 Sur 5 Sur 0 -- -- 71
2017-08-18 23:00:00 26 2 Sudoeste 16 Nordeste 0 -- -- 65
2017-08-18 22:00:00 26.6 4 Nordeste 13 Este 0 -- -- 62
2017-08-18 21:00:00 26.7 3 Sur 12 Nordeste 0 -- -- 65
2017-08-18 20:00:00 27.4 5 Este 25 Sur 0 -- -- 68
2017-08-18 19:00:00 28.8 10 Sur 24 Sur 0 -- -- 59
2017-08-18 18:00:00 29.3 15 Sur 27 Sur 0 -- -- 58
2017-08-18 17:00:00 29.8 11 Sudeste 28 Sudoeste 0 -- -- 58
2017-08-18 16:00:00 29.3 10 Sur 34 Sur 0 -- -- 58
2017-08-18 15:00:00 29.4 11 Sur 39 Sur 0 -- -- 63
2017-08-18 14:00:00 29.8 15 Sur 40 Sur 0 -- -- 57
2017-08-18 13:00:00 30.5 13 Sur 30 Sur 0 -- -- 51
2017-08-18 12:00:00 30.2 18 Sur 35 Sur 0 -- -- 53
2017-08-18 11:00:00 30.2 16 Sur 27 Sur 0 -- -- 51
2017-08-18 10:00:00 29.7 6 Sur 12 Sudeste 0 -- -- 54
2017-08-18 09:00:00 25.6 3 Oeste 14 Oeste 0 -- -- 62
2017-08-18 08:00:00 22.2 6 Oeste 13 Oeste 0 -- -- 73
2017-08-18 07:00:00 21.2 6 Oeste 13 Sudoeste 0 -- -- 77
2017-08-18 06:00:00 21.8 6 Oeste 13 Sudoeste 0 -- -- 78
2017-08-18 05:00:00 21.6 4 Oeste 15 Oeste 0 -- -- 80
2017-08-18 04:00:00 21.9 6 Oeste 16 Oeste 0 -- -- 79
2017-08-18 03:00:00 22.8 7 Oeste 16 Oeste 0 -- -- 77
2017-08-18 02:00:00 22.8 6 Oeste 13 Oeste 0 -- -- 77
2017-08-18 01:00:00 23.5 5 Oeste 12 Oeste 0 -- -- 75
2017-08-18 00:00:00 23.7 5 Oeste 13 Oeste 0 -- -- 75
2017-08-17 23:00:00 24.3 4 Oeste 10 Sudoeste 0 -- -- 73
2017-08-17 22:00:00 25.2 3 Oeste 5 Sudoeste 0 -- -- 69
2017-08-17 21:00:00 26.4 3 Noroeste 16 Sur 0 -- -- 68
2017-08-17 20:00:00 27 9 Sur 23 Sur 0 -- -- 68
2017-08-17 19:00:00 27.7 10 Sur 22 Sur 0 -- -- 64
2017-08-17 18:00:00 28.6 8 Sur 22 Sudeste 0 -- -- 60
2017-08-17 17:00:00 28.7 13 Sudeste 22 Sudeste 0 -- -- 53
2017-08-17 16:00:00 29.2 9 Sudeste 20 Sudeste 0 -- -- 49
2017-08-17 15:00:00 29.1 11 Sudeste 23 Sudeste 0 -- -- 51
2017-08-17 14:00:00 28.7 14 Sudeste 23 Sudeste 0 -- -- 48
2017-08-17 13:00:00 29 10 Sudeste 22 Sudeste 0 -- -- 53
2017-08-17 12:00:00 28.7 8 Este 16 Este 0 -- -- 51
2017-08-17 11:00:00 28.3 7 Sudeste 14 Este 0 -- -- 54
2017-08-17 10:00:00 26.7 3 Noroeste 10 Oeste 0 -- -- 57
2017-08-17 09:00:00 22.9 4 Oeste 13 Oeste 0 -- -- 73
2017-08-17 08:00:00 19.7 5 Oeste 12 Oeste 0 -- -- 82
2017-08-17 07:00:00 19.5 5 Oeste 11 Oeste 0 -- -- 82
2017-08-17 06:00:00 19.7 5 Oeste 13 Sudoeste 0 -- -- 82
2017-08-17 05:00:00 19.8 5 Oeste 10 Sudoeste 0 -- -- 80
2017-08-17 04:00:00 20 4 Oeste 12 Oeste 0 -- -- 79
2017-08-17 03:00:00 20.3 5 Oeste 13 Oeste 0 -- -- 78
2017-08-17 02:00:00 20.6 6 Oeste 13 Oeste 0 -- -- 77
2017-08-17 01:00:00 21 5 Oeste 11 Noroeste 0 -- -- 76
2017-08-17 00:00:00 21.2 3 Oeste 10 Oeste 0 -- -- 77
2017-08-16 23:00:00 21.6 5 Oeste 10 Oeste 0 -- -- 76
2017-08-16 22:00:00 22.3 4 Oeste 8 Sudoeste 0 -- -- 71
2017-08-16 21:00:00 23.8 0 Calma 5 Este 0 -- -- 68
2017-08-16 20:00:00 24.4 3 Este 10 Nordeste 0 -- -- 69
2017-08-16 19:00:00 25 6 Este 15 Este 0 -- -- 70
2017-08-16 18:00:00 25.2 10 Este 21 Sudeste 0 -- -- 69
2017-08-16 17:00:00 26 10 Este 22 Este 0 -- -- 68
2017-08-16 16:00:00 25.5 13 Este 24 Este 0 -- -- 69
2017-08-16 15:00:00 25.9 12 Este 20 Este 0 -- -- 69
2017-08-16 14:00:00 25.2 10 Este 20 Este 0 -- -- 70
2017-08-16 13:00:00 25.5 10 Este 21 Este 0 -- -- 69
2017-08-16 12:00:00 25.6 13 Este 22 Este 0 -- -- 69
2017-08-16 11:00:00 26.1 9 Este 17 Este 0 -- -- 65
2017-08-16 10:00:00 24.7 4 Este 11 Este 0 -- -- 70
2017-08-16 09:00:00 22.6 4 Oeste 9 Sudoeste 0 -- -- 83
2017-08-16 08:00:00 20.5 3 Oeste 8 Oeste 0 -- -- 89
2017-08-16 07:00:00 20.2 2 Oeste 7 Oeste 0 -- -- 89
2017-08-16 06:00:00 21 2 Oeste 11 Noroeste 0 -- -- 87
2017-08-16 05:00:00 21.7 0 Calma 5 Nordeste 0 -- -- 87
2017-08-16 04:00:00 22.5 2 Norte 11 Noroeste 0 -- -- 85
2017-08-16 03:00:00 23.1 6 Norte 17 Norte 0 -- -- 82
2017-08-16 02:00:00 22.9 6 Nordeste 17 Norte 0 -- -- 85
2017-08-16 01:00:00 23.3 5 Norte 17 Nordeste 0 -- -- 84
2017-08-16 00:00:00 23.2 4 Nordeste 8 Nordeste 0 -- -- 82
2017-08-15 23:00:00 23.8 3 Sudoeste 9 Nordeste 0 -- -- 80
2017-08-15 22:00:00 24.1 4 Norte 15 Este 0 -- -- 80
2017-08-15 21:00:00 24.5 5 Sudeste 12 Sur 0 -- -- 84
2017-08-15 20:00:00 25 3 Oeste 11 Sur 0 -- -- 80
2017-08-15 19:00:00 25.3 4 Sudeste 18 Este 0 -- -- 79
2017-08-15 18:00:00 25.8 9 Sudeste 22 Sudeste 0 -- -- 78
2017-08-15 17:00:00 26.6 9 Sur 24 Sudeste 0 -- -- 74
2017-08-15 16:00:00 27.1 13 Sur 26 Sudoeste 0 -- -- 71
2017-08-15 15:00:00 26.6 8 Sudeste 26 Sudeste 0 -- -- 72
2017-08-15 14:00:00 26 13 Sudeste 24 Sudeste 0 -- -- 72
2017-08-15 13:00:00 26.8 10 Sudeste 23 Este 0 -- -- 68
2017-08-15 12:00:00 26.1 7 Sudeste 19 Sudeste 0 -- -- 71
2017-08-15 11:00:00 25.2 9 Este 18 Sudeste 0 -- -- 75
2017-08-15 10:00:00 24.4 5 Este 11 Oeste 0 -- -- 79
2017-08-15 09:00:00 21 6 Oeste 12 Sudoeste 0 -- -- 82
2017-08-15 08:00:00 18.8 4 Oeste 10 Oeste 0 -- -- 90
2017-08-15 07:00:00 17.8 6 Oeste 11 Oeste 0 -- -- 90
2017-08-15 06:00:00 18 4 Oeste 12 Oeste 0 -- -- 92
2017-08-15 05:00:00 17.7 4 Oeste 9 Oeste 0 -- -- 90
2017-08-15 04:00:00 18.2 4 Oeste 10 Oeste 0 -- -- 89
2017-08-15 03:00:00 18.9 5 Oeste 10 Oeste 0 -- -- 88
2017-08-15 02:00:00 19.6 4 Oeste 9 Oeste 0 -- -- 85
2017-08-15 01:00:00 20.6 3 Oeste 6 Oeste 0 -- -- 85
2017-08-15 00:00:00 21.4 0 Calma 9 Sur 0 -- -- 83
2017-08-14 23:00:00 22.4 0 Calma 8 Sur 0 -- -- 80
2017-08-14 22:00:00 23.4 4 Sudoeste 15 Norte 0 -- -- 74
2017-08-14 21:00:00 24.6 10 Sur 24 Sur 0 -- -- 68
2017-08-14 20:00:00 25.5 8 Sur 22 Sudoeste 0 -- -- 64
2017-08-14 19:00:00 26.6 11 Sudoeste 27 Sudoeste 0 -- -- 59
2017-08-14 18:00:00 27 13 Sur 31 Sudeste 0 -- -- 60
2017-08-14 17:00:00 27.7 12 Sur 32 Sur 0 -- -- 61
2017-08-14 16:00:00 28 13 Sur 30 Sudeste 0 -- -- 61
2017-08-14 15:00:00 27.9 10 Sudoeste 38 Sur 0 -- -- 65
2017-08-14 14:00:00 27.6 20 Sur 41 Sur 0 -- -- 65
2017-08-14 13:00:00 27.5 21 Sur 39 Sudoeste 0 -- -- 64
2017-08-14 12:00:00 27.4 18 Sur 32 Sur 0 -- -- 62
2017-08-14 11:00:00 27 14 Sur 29 Sur 0 -- -- 60
2017-08-14 10:00:00 26 8 Sur 17 Sur 0 -- -- 58
2017-08-14 09:00:00 22.4 3 Oeste 10 Oeste 0 -- -- 76
2017-08-14 08:00:00 19.1 4 Oeste 12 Sudoeste 0 -- -- 85
2017-08-14 07:00:00 18 4 Oeste 12 Sudoeste 0 -- -- 90
2017-08-14 06:00:00 18.2 4 Oeste 11 Oeste 0 -- -- 89
2017-08-14 05:00:00 19 3 Oeste 10 Oeste 0 -- -- 87
2017-08-14 04:00:00 20.5 4 Oeste 10 Oeste 0 -- -- 85
2017-08-14 03:00:00 20.9 6 Sudoeste 13 Sudoeste 0 -- -- 85
2017-08-14 02:00:00 20.9 5 Oeste 12 Sudoeste 0 -- -- 86
2017-08-14 01:00:00 21.3 4 Oeste 10 Sudoeste 0 -- -- 84
2017-08-14 00:00:00 21.2 3 Oeste 8 Oeste 0 -- -- 83
2017-08-13 23:00:00 21.8 3 Oeste 6 Oeste 0 -- -- 80
2017-08-13 22:00:00 23.6 3 Oeste 10 Sudoeste 0 -- -- 73
2017-08-13 21:00:00 24.6 6 Sudoeste 20 Sur 0 -- -- 70
2017-08-13 20:00:00 25.1 11 Sur 25 Sur 0 -- -- 69
2017-08-13 19:00:00 25.7 14 Sur 28 Sur 0 -- -- 64
2017-08-13 18:00:00 26.1 12 Sur 31 Sudeste 0 -- -- 59
2017-08-13 17:00:00 25.8 17 Sur 26 Sudeste 0 -- -- 59
2017-08-13 16:00:00 26 15 Sur 26 Sudeste 0 -- -- 56
2017-08-13 15:00:00 26.1 13 Sur 25 Sur 0 -- -- 54
2017-08-13 14:00:00 25.5 13 Sudeste 24 Sudeste 0 -- -- 55
2017-08-13 13:00:00 26.4 11 Sudeste 23 Sur 0 -- -- 52
2017-08-13 12:00:00 25.9 12 Sur 20 Sudeste 0 -- -- 54
2017-08-13 11:00:00 26 10 Sur 17 Sur 0 -- -- 51
2017-08-13 10:00:00 23.6 4 Noroeste 13 Noroeste 0 -- -- 65
2017-08-13 09:00:00 19.9 5 Oeste 13 Sudoeste 0 -- -- 80
2017-08-13 08:00:00 17.1 5 Oeste 14 Sudoeste 0 -- -- 86
2017-08-13 07:00:00 16.7 5 Oeste 10 Oeste 0 -- -- 87
2017-08-13 06:00:00 17 4 Oeste 11 Oeste 0 -- -- 87
2017-08-13 05:00:00 17.6 4 Oeste 12 Oeste 0 -- -- 87
2017-08-13 04:00:00 18.1 4 Oeste 10 Oeste 0 -- -- 85
2017-08-13 03:00:00 18.8 4 Oeste 13 Oeste 0 -- -- 84
2017-08-13 02:00:00 18.9 4 Oeste 12 Oeste 0 -- -- 86
2017-08-13 01:00:00 19.1 4 Oeste 10 Sudoeste 0 -- -- 83
2017-08-13 00:00:00 19.7 4 Oeste 9 Oeste 0 -- -- 81
2017-08-12 23:00:00 20.6 4 Oeste 9 Oeste 0 -- -- 78
2017-08-12 22:00:00 21.9 3 Oeste 12 Sudoeste 0 -- -- 73
2017-08-12 21:00:00 22.9 6 Sudoeste 15 Sur 0 -- -- 68
2017-08-12 20:00:00 23.6 7 Sur 21 Sudoeste 0 -- -- 66
2017-08-12 19:00:00 23.9 13 Sur 26 Sudoeste 0 -- -- 63
2017-08-12 18:00:00 24.4 10 Sur 21 Sur 0 -- -- 59
2017-08-12 17:00:00 24.4 12 Sudeste 22 Sudeste 0 -- -- 56
2017-08-12 16:00:00 24.6 9 Sudeste 25 Sudeste 0 -- -- 55
2017-08-12 15:00:00 24.5 11 Este 21 Este 0 -- -- 54
2017-08-12 14:00:00 24.8 9 Sudeste 22 Este 0 -- -- 53
2017-08-12 13:00:00 24.7 9 Sudeste 18 Este 0 -- -- 48
2017-08-12 12:00:00 24.1 9 Este 17 Este 0 -- -- 47
2017-08-12 11:00:00 23.2 3 Sudoeste 9 Noroeste 0 -- -- 49
2017-08-12 10:00:00 21.7 2 Oeste 24 Norte 0 -- -- 51
2017-08-12 09:00:00 19.9 9 Noroeste 21 Norte 0 -- -- 53
2017-08-12 08:00:00 18.3 6 Oeste 19 Noroeste 0 -- -- 68
2017-08-12 07:00:00 17 6 Oeste 14 Oeste 0 -- -- 79
2017-08-12 06:00:00 16.7 4 Oeste 9 Oeste 0 -- -- 86
2017-08-12 05:00:00 17.4 4 Oeste 8 Oeste 0 -- -- 83
2017-08-12 04:00:00 17.9 3 Oeste 9 Oeste 0 -- -- 83
2017-08-12 03:00:00 17.9 3 Oeste 8 Sudoeste 0 -- -- 83
2017-08-12 02:00:00 17.9 3 Oeste 11 Oeste 0 -- -- 84
2017-08-12 01:00:00 18 3 Sudoeste 7 Oeste 0 -- -- 84
2017-08-12 00:00:00 18.7 4 Oeste 9 Oeste 0 -- -- 82
2017-08-11 23:00:00 18.8 4 Oeste 9 Oeste 0 -- -- 84
2017-08-11 22:00:00 19 3 Oeste 8 Oeste 0 -- -- 82
2017-08-11 21:00:00 19.6 4 Oeste 6 Oeste 0 -- -- 79
2017-08-11 20:00:00 20.8 3 Norte 8 Sudeste 0.2 -- -- 73
2017-08-11 19:00:00 22.4 5 Sur 14 Sudeste 0 -- -- 52
2017-08-11 18:00:00 22.3 6 Sudeste 14 Sudeste 0 -- -- 52
2017-08-11 17:00:00 22.6 6 Sudeste 15 Sudeste 0 -- -- 52
2017-08-11 16:00:00 22.7 5 Sudeste 21 Sudeste 0 -- -- 51
2017-08-11 15:00:00 24 9 Este 23 Sudeste 0 -- -- 48
2017-08-11 14:00:00 24.6 9 Sudeste 24 Sudeste 0 -- -- 48
2017-08-11 13:00:00 24.3 9 Sudeste 21 Sudeste 0 -- -- 48
2017-08-11 12:00:00 23.5 4 Oeste 14 Norte 0 -- -- 50
2017-08-11 11:00:00 21.5 8 Norte 14 Oeste 0 -- -- 55
2017-08-11 10:00:00 20.6 5 Oeste 16 Oeste 0 -- -- 63
2017-08-11 09:00:00 17.7 3 Oeste 16 Sudoeste 0 -- -- 80
2017-08-11 08:00:00 15.8 6 Oeste 18 Oeste 0 -- -- 87
2017-08-11 07:00:00 14.8 5 Oeste 10 Oeste 0 -- -- 92
2017-08-11 06:00:00 15.3 7 Oeste 14 Oeste 0 -- -- 91
2017-08-11 05:00:00 15.7 9 Oeste 18 Oeste 0 -- -- 92
2017-08-11 04:00:00 15.8 4 Oeste 15 Oeste 0 -- -- 92
2017-08-11 03:00:00 16.2 5 Oeste 10 Oeste 0 -- -- 93
2017-08-11 02:00:00 16.5 4 Oeste 9 Sudoeste 0 -- -- 92
2017-08-11 01:00:00 16.8 3 Oeste 10 Oeste 0 -- -- 90
2017-08-11 00:00:00 17.5 3 Sudoeste 10 Oeste 0 -- -- 90
2017-08-10 23:00:00 17.8 4 Oeste 15 Norte 0 -- -- 89
2017-08-10 22:00:00 19 7 Norte 13 Norte 3.8 -- -- 81
2017-08-10 21:00:00 19.9 3 Sur 6 Sur 0 -- -- 86
2017-08-10 20:00:00 20.5 4 Oeste 10 Noroeste 0 -- -- 85
2017-08-10 19:00:00 20.4 6 Sudoeste 13 Este 4.4 -- -- 80
2017-08-10 18:00:00 22.4 9 Este 22 Sudeste 0 -- -- 57
2017-08-10 17:00:00 24.2 10 Sudeste 24 Sudeste 0 -- -- 51
2017-08-10 16:00:00 24.1 12 Sudeste 27 Este 0 -- -- 52
2017-08-10 15:00:00 24.5 12 Sudeste 28 Sudeste 0 -- -- 50
2017-08-10 14:00:00 23.9 12 Sur 24 Sudeste 0 -- -- 50
2017-08-10 13:00:00 24 12 Sur 23 Sudeste 0 -- -- 49
2017-08-10 12:00:00 23.7 11 Sudeste 18 Sudeste 0 -- -- 41
2017-08-10 11:00:00 20.3 5 Oeste 19 Oeste 0 -- -- 47
2017-08-10 10:00:00 18.7 10 Oeste 21 Oeste 0 -- -- 56
2017-08-10 09:00:00 18 9 Oeste 32 Norte 0 -- -- 54
2017-08-10 08:00:00 18.1 18 Noroeste 41 Norte 0 -- -- 47
2017-08-10 07:00:00 16.8 7 Noroeste 22 Noroeste 0 -- -- 59
2017-08-10 06:00:00 16.8 3 Oeste 9 Oeste 0 -- -- 67
2017-08-10 05:00:00 17.5 4 Sudoeste 16 Noroeste 0 -- -- 59
2017-08-10 04:00:00 18.5 11 Noroeste 32 Norte 0 -- -- 53
2017-08-10 03:00:00 19 12 Norte 35 Norte 0 -- -- 49
2017-08-10 02:00:00 18.8 21 Noroeste 39 Noroeste 0 -- -- 51
2017-08-10 01:00:00 18.6 17 Noroeste 32 Noroeste 0 -- -- 61
2017-08-10 00:00:00 17.5 8 Noroeste 33 Noroeste 0 -- -- 77
2017-08-09 23:00:00 18.5 17 Noroeste 41 Norte 0 -- -- 63
2017-08-09 22:00:00 18.9 18 Noroeste 45 Noroeste 0 -- -- 69
2017-08-09 21:00:00 20.5 21 Norte 45 Norte 0 -- -- 49
2017-08-09 20:00:00 21.6 19 Norte 39 Norte 0 -- -- 46
2017-08-09 19:00:00 23.6 14 Norte 34 Nordeste 0 -- -- 42
2017-08-09 18:00:00 24.5 12 Nordeste 30 Este 0 -- -- 41
2017-08-09 17:00:00 26.1 13 Este 36 Este 0 -- -- 38
2017-08-09 16:00:00 25.5 17 Este 34 Nordeste 0 -- -- 41
2017-08-09 15:00:00 25.4 17 Este 29 Este 0 -- -- 46
2017-08-09 14:00:00 24.9 15 Este 31 Este 0 -- -- 50
2017-08-09 13:00:00 25.3 15 Este 28 Este 0 -- -- 44
2017-08-09 12:00:00 25 13 Este 23 Este 0 -- -- 47
2017-08-09 11:00:00 24.9 12 Este 21 Este 0 -- -- 44
2017-08-09 10:00:00 23.8 9 Nordeste 18 Nordeste 0 -- -- 45
2017-08-09 09:00:00 20.7 8 Oeste 17 Oeste 0 -- -- 56
2017-08-09 08:00:00 18.8 9 Oeste 17 Oeste 0 -- -- 61
2017-08-09 07:00:00 18.5 7 Oeste 31 Noroeste 0 -- -- 60
2017-08-09 06:00:00 19.4 5 Oeste 15 Nordeste 0 -- -- 56
2017-08-09 05:00:00 20.5 5 Sudoeste 35 Noroeste 0 -- -- 52
2017-08-09 04:00:00 21.1 17 Norte 41 Noroeste 0 -- -- 51
2017-08-09 03:00:00 21.6 20 Norte 41 Norte 0 -- -- 50
2017-08-09 02:00:00 22.3 15 Norte 40 Norte 0 -- -- 46
2017-08-09 01:00:00 22.6 18 Norte 42 Norte 0 -- -- 45
2017-08-09 00:00:00 22.6 19 Norte 40 Norte 0 -- -- 43
2017-08-08 23:00:00 22.9 18 Norte 43 Norte 0 -- -- 42
2017-08-08 22:00:00 23.1 20 Norte 44 Nordeste 0 -- -- 41
2017-08-08 21:00:00 23.7 23 Norte 51 Noroeste 0 -- -- 38
2017-08-08 20:00:00 24.3 23 Norte 42 Norte 0 -- -- 39
2017-08-08 19:00:00 25.1 17 Norte 43 Norte 0 -- -- 40
2017-08-08 18:00:00 25.2 17 Norte 40 Nordeste 0 -- -- 40
2017-08-08 17:00:00 25.7 6 Norte 28 Nordeste 0 -- -- 46
2017-08-08 16:00:00 25.8 10 Nordeste 27 Nordeste 0 -- -- 47
2017-08-08 15:00:00 25.1 10 Norte 31 Norte 0 -- -- 50
2017-08-08 14:00:00 25.3 11 Norte 28 Norte 0 -- -- 46
2017-08-08 13:00:00 24.8 10 Norte 24 Norte 0 -- -- 52
2017-08-08 12:00:00 25.4 7 Norte 18 Este 0 -- -- 55
2017-08-08 11:00:00 25.2 8 Nordeste 23 Nordeste 0 -- -- 59
2017-08-08 10:00:00 24.6 10 Nordeste 23 Nordeste 0 -- -- 68
2017-08-08 09:00:00 24.1 9 Este 29 Este 0 -- -- 71
2017-08-08 08:00:00 24.7 14 Este 25 Este 0 -- -- 78
2017-08-08 07:00:00 25.2 3 Este 6 Sudeste 0 -- -- 86
2017-08-08 06:00:00 25.5 3 Nordeste 9 Sur 0 -- -- 85
2017-08-08 05:00:00 25.7 5 Sur 12 Sur 0 -- -- 83
2017-08-08 04:00:00 25.6 5 Sur 16 Sur 0 -- -- 83
2017-08-08 03:00:00 25.9 6 Sudoeste 17 Sur 0 -- -- 80
2017-08-08 02:00:00 25.6 2 Sudeste 11 Sudoeste 0 -- -- 80
2017-08-08 01:00:00 25.9 6 Sudoeste 20 Sudoeste 0 -- -- 80
2017-08-08 00:00:00 25.9 8 Sudoeste 27 Sudoeste 0 -- -- 80
2017-08-07 23:00:00 26 10 Sudoeste 29 Sudoeste 0 -- -- 78
2017-08-07 22:00:00 26.2 8 Noroeste 19 Oeste 0 -- -- 74
2017-08-07 21:00:00 26.5 4 Sudeste 15 Sur 0 -- -- 70
2017-08-07 20:00:00 27.5 5 Nordeste 23 Este 0 -- -- 67
2017-08-07 19:00:00 27.9 13 Sur 44 Sudoeste 0 -- -- 65
2017-08-07 18:00:00 28.3 15 Sur 44 Sur 0 -- -- 60
2017-08-07 17:00:00 28.8 18 Sur 51 Sur 0 -- -- 57
2017-08-07 16:00:00 29 20 Sur 46 Sudoeste 0 -- -- 58
2017-08-07 15:00:00 29.2 9 Sur 34 Sur 0 -- -- 54
2017-08-07 14:00:00 28.6 17 Sudeste 39 Sudeste 0 -- -- 53
2017-08-07 13:00:00 28.6 10 Sudeste 24 Sur 0 -- -- 50
2017-08-07 12:00:00 27.9 10 Sudeste 20 Sudeste 0 -- -- 46
2017-08-07 11:00:00 27.8 9 Sudeste 18 Este 0 -- -- 39
2017-08-07 10:00:00 27.2 8 Este 14 Este 0 -- -- 44
2017-08-07 09:00:00 25.5 5 Nordeste 10 Nordeste 0 -- -- 63
2017-08-07 08:00:00 21.8 5 Oeste 10 Oeste 0 -- -- 73
2017-08-07 07:00:00 20.9 4 Oeste 9 Oeste 0 -- -- 74
2017-08-07 06:00:00 21.4 4 Oeste 11 Oeste 0 -- -- 69
2017-08-07 05:00:00 21.9 4 Sudoeste 11 Oeste 0 -- -- 67
2017-08-07 04:00:00 22.3 3 Oeste 10 Sudoeste 0 -- -- 64
2017-08-07 03:00:00 22.6 3 Oeste 8 Sudoeste 0 -- -- 60
2017-08-07 02:00:00 23.5 5 Oeste 8 Oeste 0 -- -- 57
2017-08-07 01:00:00 24.6 3 Sudoeste 19 Noroeste 0 -- -- 54
2017-08-07 00:00:00 24.8 5 Oeste 17 Norte 0 -- -- 50
2017-08-06 23:00:00 25.6 3 Oeste 8 Noroeste 0 -- -- 65
2017-08-06 22:00:00 27.4 4 Noroeste 7 Noroeste 0 -- -- 59
2017-08-06 21:00:00 27.7 2 Norte 10 Sur 0 -- -- 56
2017-08-06 20:00:00 28.1 6 Sur 12 Sur 0 -- -- 50
2017-08-06 19:00:00 28.1 5 Sudeste 13 Este 0 -- -- 50
2017-08-06 18:00:00 28.8 7 Este 18 Este 0 -- -- 47
2017-08-06 17:00:00 29.9 9 Este 21 Este 0 -- -- 47
2017-08-06 16:00:00 30.5 12 Este 27 Este 0 -- -- 44
2017-08-06 15:00:00 29.9 14 Este 28 Este 0 -- -- 45
2017-08-06 14:00:00 29.7 15 Este 30 Este 0 -- -- 47
2017-08-06 13:00:00 30.2 10 Norte 27 Este 0 -- -- 46
2017-08-06 12:00:00 28 11 Este 23 Sudeste 0 -- -- 57
2017-08-06 11:00:00 29.8 3 Noroeste 19 Norte 0 -- -- 46
2017-08-06 10:00:00 27.7 12 Noroeste 35 Norte 0 -- -- 52
2017-08-06 09:00:00 26.4 13 Noroeste 30 Nordeste 0 -- -- 55
2017-08-06 08:00:00 23.6 4 Sudoeste 16 Oeste 0 -- -- 76
2017-08-06 07:00:00 23 5 Oeste 15 Oeste 0 -- -- 76
2017-08-06 06:00:00 23.2 3 Oeste 15 Oeste 0 -- -- 75
2017-08-06 05:00:00 22.7 5 Oeste 10 Oeste 0 -- -- 78
2017-08-06 04:00:00 23.2 5 Oeste 9 Oeste 0 -- -- 77
2017-08-06 03:00:00 23.5 0 Calma 8 Oeste 0 -- -- 76
2017-08-06 02:00:00 24.2 4 Sudoeste 12 Oeste 0 -- -- 73
2017-08-06 01:00:00 24.7 4 Oeste 14 Oeste 0 -- -- 72
2017-08-06 00:00:00 25.6 3 Sudoeste 8 Oeste 0 -- -- 73
2017-08-05 23:00:00 26.5 3 Oeste 8 Oeste 0 -- -- 72
2017-08-05 22:00:00 27.3 3 Oeste 8 Noroeste 0 -- -- 68
2017-08-05 21:00:00 28.9 2 Sudoeste 9 Sur 0 -- -- 63
2017-08-05 20:00:00 29.6 4 Sur 14 Sudoeste 0 -- -- 62
2017-08-05 19:00:00 29.9 8 Sudeste 16 Sudeste 0 -- -- 60
2017-08-05 18:00:00 30.7 9 Sudeste 20 Sudeste 0 -- -- 53
2017-08-05 17:00:00 31 14 Sudeste 24 Sudeste 0 -- -- 50
2017-08-05 16:00:00 31.7 12 Sudeste 27 Sudeste 0 -- -- 48
2017-08-05 15:00:00 31.4 10 Sudeste 28 Sudeste 0 -- -- 49
2017-08-05 14:00:00 31.5 12 Sudeste 22 Sudeste 0 -- -- 49
2017-08-05 13:00:00 31.3 10 Este 22 Este 0 -- -- 59
2017-08-05 12:00:00 31.4 10 Este 21 Este 0 -- -- 49
2017-08-05 11:00:00 31.6 8 Este 17 Este 0 -- -- 48
2017-08-05 10:00:00 30.7 6 Este 12 Este 0 -- -- 48
2017-08-05 09:00:00 27.2 4 Oeste 11 Sudoeste 0 -- -- 61
2017-08-05 08:00:00 23.7 4 Oeste 11 Sudoeste 0 -- -- 71
2017-08-05 07:00:00 22.3 5 Oeste 11 Sudoeste 0 -- -- 75
2017-08-05 06:00:00 22.5 3 Oeste 11 Oeste 0 -- -- 74
2017-08-05 05:00:00 23 4 Sudoeste 12 Oeste 0 -- -- 72
2017-08-05 04:00:00 23.3 4 Oeste 12 Oeste 0 -- -- 71
2017-08-05 03:00:00 24.1 6 Oeste 10 Oeste 0 -- -- 68
2017-08-05 02:00:00 24.9 4 Oeste 10 Oeste 0 -- -- 66
2017-08-05 01:00:00 25.6 4 Oeste 9 Oeste 0 -- -- 65
2017-08-05 00:00:00 25.8 4 Oeste 9 Oeste 0 -- -- 61
2017-08-04 23:00:00 26.7 4 Sudoeste 9 Oeste 0 -- -- 58
2017-08-04 22:00:00 27.7 4 Oeste 7 Sudoeste 0 -- -- 58
2017-08-04 21:00:00 29.4 0 Calma 9 Sur 0 -- -- 55
2017-08-04 20:00:00 30.5 3 Sudeste 10 Sudeste 0 -- -- 50
2017-08-04 19:00:00 31 7 Sudeste 13 Sudeste 0 -- -- 46
2017-08-04 18:00:00 31.3 7 Sudeste 16 Este 0 -- -- 46
2017-08-04 17:00:00 31.4 7 Este 21 Este 0 -- -- 47
2017-08-04 16:00:00 31.1 11 Este 19 Sudeste 0 -- -- 47
2017-08-04 15:00:00 31.5 10 Sudeste 21 Sudeste 0 -- -- 50
2017-08-04 14:00:00 31.5 9 Sudeste 21 Sudeste 0 -- -- 50
2017-08-04 13:00:00 31.2 10 Sudeste 19 Sudeste 0 -- -- 51
2017-08-04 12:00:00 31.1 8 Sudeste 15 Sudeste 0 -- -- 53
2017-08-04 11:00:00 31.3 8 Sudeste 13 Sudeste 0 -- -- 52
2017-08-04 10:00:00 29 7 Oeste 22 Oeste 0 -- -- 61
2017-08-04 09:00:00 25.7 12 Oeste 22 Oeste 0 -- -- 73
2017-08-04 08:00:00 22.1 7 Oeste 16 Oeste 0 -- -- 86
2017-08-04 07:00:00 20.8 5 Oeste 11 Sudoeste 0 -- -- 88
2017-08-04 06:00:00 20.8 6 Oeste 13 Oeste 0 -- -- 86
2017-08-04 05:00:00 21.1 4 Oeste 9 Oeste 0 -- -- 85
2017-08-04 04:00:00 21.5 5 Oeste 9 Oeste 0 -- -- 83
2017-08-04 03:00:00 22.4 4 Sudoeste 5 Oeste 0 -- -- 84
2017-08-04 02:00:00 23.3 0 Calma 8 Sudeste 0 -- -- 77
2017-08-04 01:00:00 24.2 4 Noroeste 14 Oeste 0 -- -- 72
2017-08-04 00:00:00 24.6 3 Oeste 7 Oeste 0 -- -- 71
2017-08-03 23:00:00 25.2 4 Noroeste 6 Sudoeste 0 -- -- 74
2017-08-03 22:00:00 26.4 3 Oeste 9 Oeste 0 -- -- 70
2017-08-03 21:00:00 27.8 3 Oeste 8 Este 0 -- -- 67
2017-08-03 20:00:00 28.2 4 Sudeste 14 Este 0 -- -- 65
2017-08-03 19:00:00 28.8 6 Este 16 Este 0 -- -- 66
2017-08-03 18:00:00 28.9 9 Este 16 Este 0 -- -- 67
2017-08-03 17:00:00 28.7 7 Este 17 Nordeste 0 -- -- 66
2017-08-03 16:00:00 27.1 9 Este 23 Este 0 -- -- 74
2017-08-03 15:00:00 27 13 Este 28 Este 0 -- -- 75
2017-08-03 14:00:00 27.6 15 Este 27 Este 0 -- -- 73
2017-08-03 13:00:00 26.9 14 Este 35 Este 0 -- -- 77
2017-08-03 12:00:00 27.4 13 Este 27 Este 0 -- -- 75
2017-08-03 11:00:00 30.2 8 Sudeste 15 Sudeste 0 -- -- 64
2017-08-03 10:00:00 27.1 9 Sudeste 22 Este 0 -- -- 77
2017-08-03 09:00:00 26.7 5 Sudeste 15 Oeste 0 -- -- 75
2017-08-03 08:00:00 23.7 6 Nordeste 13 Noroeste 0 -- -- 88
2017-08-03 07:00:00 23.1 5 Este 12 Este 0 -- -- 90
2017-08-03 06:00:00 22.2 5 Oeste 14 Sudoeste 0 -- -- 82
2017-08-03 05:00:00 21.8 6 Oeste 13 Oeste 0 -- -- 82
2017-08-03 04:00:00 21.6 5 Oeste 11 Oeste 0 -- -- 80
2017-08-03 03:00:00 21.9 2 Oeste 11 Oeste 0 -- -- 79
2017-08-03 02:00:00 22.5 3 Oeste 6 Oeste 0 -- -- 80
2017-08-03 01:00:00 23.5 2 Oeste 6 Nordeste 0 -- -- 80
2017-08-03 00:00:00 24.8 3 Nordeste 12 Sudoeste 0 -- -- 78
2017-08-02 23:00:00 25.5 2 Sudoeste 8 Oeste 0 -- -- 85
2017-08-02 22:00:00 26.7 3 Oeste 10 Sudeste 0 -- -- 81
2017-08-02 21:00:00 28.1 4 Este 13 Sur 0 -- -- 75
2017-08-02 20:00:00 29.2 4 Sudeste 20 Sur 0 -- -- 67
2017-08-02 19:00:00 29.4 13 Sur 22 Sudeste 0 -- -- 68
2017-08-02 18:00:00 30.7 10 Sur 19 Sudeste 0 -- -- 59
2017-08-02 17:00:00 29.8 10 Sudeste 19 Sur 0 -- -- 63
2017-08-02 16:00:00 28.5 9 Sur 20 Sur 0 -- -- 73
2017-08-02 15:00:00 28.1 6 Este 19 Este 0 -- -- 74
2017-08-02 14:00:00 27.3 9 Este 24 Este 0 -- -- 75
2017-08-02 13:00:00 26.5 14 Este 27 Nordeste 0 -- -- 74
2017-08-02 12:00:00 27 13 Este 25 Este 0 -- -- 72
2017-08-02 11:00:00 28.1 10 Este 19 Este 0 -- -- 67
2017-08-02 10:00:00 28 6 Este 12 Este 0 -- -- 63
2017-08-02 09:00:00 24.9 3 Oeste 14 Oeste 0 -- -- 75
2017-08-02 08:00:00 21.8 5 Oeste 14 Oeste 0 -- -- 86
2017-08-02 07:00:00 20.6 4 Oeste 11 Oeste 0 -- -- 90
2017-08-02 06:00:00 21.1 5 Oeste 11 Sudoeste 0 -- -- 90
2017-08-02 05:00:00 21.2 5 Oeste 10 Oeste 0 -- -- 90
2017-08-02 04:00:00 21.9 3 Oeste 9 Oeste 0 -- -- 90
2017-08-02 03:00:00 22.4 4 Oeste 9 Oeste 0 -- -- 88
2017-08-02 02:00:00 23.2 4 Oeste 17 Noroeste 0 -- -- 87
2017-08-02 01:00:00 24.2 11 Noroeste 19 Noroeste 0 -- -- 85
2017-08-02 00:00:00 23.9 9 Oeste 22 Oeste 0 -- -- 86
2017-08-01 23:00:00 24.2 8 Oeste 15 Oeste 0 -- -- 87
2017-08-01 22:00:00 24.8 5 Oeste 12 Oeste 0 -- -- 88
2017-08-01 21:00:00 25.1 5 Este 11 Este 0 -- -- 84
2017-08-01 20:00:00 25.5 5 Este 12 Este 0 -- -- 82
2017-08-01 19:00:00 25.8 6 Este 15 Este 0.2 -- -- 81
2017-08-01 18:00:00 26.3 6 Sur 16 Este 0 -- -- 81
2017-08-01 17:00:00 27.4 6 Sudeste 18 Este 0 -- -- 71
2017-08-01 16:00:00 27.3 13 Este 25 Este 0 -- -- 71
2017-08-01 15:00:00 27.8 12 Este 24 Este 0 -- -- 73
2017-08-01 14:00:00 27.4 10 Este 21 Sudeste 0 -- -- 74
2017-08-01 13:00:00 29.6 9 Este 19 Este 0 -- -- 65
2017-08-01 12:00:00 29.4 8 Este 18 Este 0 -- -- 65
2017-08-01 11:00:00 27.9 8 Nordeste 15 Este 0 -- -- 69
2017-08-01 10:00:00 27.2 8 Nordeste 14 Noroeste 0 -- -- 73
2017-08-01 09:00:00 24.3 6 Oeste 14 Oeste 0 -- -- 85
2017-08-01 08:00:00 22.6 6 Oeste 14 Oeste 0 -- -- 90
2017-08-01 07:00:00 22 7 Oeste 13 Oeste 0 -- -- 91
2017-08-01 06:00:00 21.9 4 Oeste 12 Oeste 0 -- -- 90
2017-08-01 05:00:00 22.7 3 Sudoeste 13 Este 0 -- -- 88
2017-08-01 04:00:00 22.9 3 Sudeste 12 Oeste 0 -- -- 88
2017-08-01 03:00:00 23.8 4 Oeste 8 Oeste 0 -- -- 86
2017-08-01 02:00:00 24.8 2 Oeste 4 Sur 0 -- -- 85
2017-08-01 01:00:00 24.6 0 Calma 5 Este 0 -- -- 86
2017-08-01 00:00:00 25.2 0 Calma 7 Sudeste 0 -- -- 83
2017-07-31 23:00:00 25.5 4 Este 9 Nordeste 0 -- -- 83
2017-07-31 22:00:00 25.1 2 Sudeste 12 Este 0 -- -- 82
2017-07-31 21:00:00 25.6 5 Este 13 Este 0 -- -- 81
2017-07-31 20:00:00 25.9 6 Este 20 Este 0 -- -- 79
2017-07-31 19:00:00 26.4 11 Este 22 Sudeste 0 -- -- 76
2017-07-31 18:00:00 27 13 Este 28 Este 0 -- -- 73
2017-07-31 17:00:00 26.7 15 Este 33 Este 0 -- -- 74
2017-07-31 16:00:00 27.9 17 Este 32 Este 0 -- -- 68
2017-07-31 15:00:00 28.4 13 Este 22 Este 0 -- -- 64
2017-07-31 14:00:00 28.4 12 Este 24 Este 0 -- -- 64
2017-07-31 13:00:00 29 13 Este 26 Este 0 -- -- 63
2017-07-31 12:00:00 28.5 10 Este 17 Este 0 -- -- 67
2017-07-31 11:00:00 26.3 8 Nordeste 18 Nordeste 0 -- -- 71
2017-07-31 10:00:00 25.3 9 Nordeste 19 Este 0 -- -- 74
2017-07-31 09:00:00 24.5 8 Nordeste 17 Este 0 -- -- 75
2017-07-31 08:00:00 21.6 3 Oeste 8 Oeste 0 -- -- 87
2017-07-31 07:00:00 19.7 3 Sudoeste 9 Sudoeste 0 -- -- 92
2017-07-31 06:00:00 19.5 3 Oeste 9 Sudoeste 0 -- -- 91
2017-07-31 05:00:00 19.1 4 Oeste 12 Noroeste 0 -- -- 90
2017-07-31 04:00:00 19 4 Oeste 12 Noroeste 0 -- -- 89
2017-07-31 03:00:00 18.9 5 Oeste 9 Oeste 0 -- -- 86
2017-07-31 02:00:00 19.2 5 Sudoeste 9 Oeste 0 -- -- 82
2017-07-31 01:00:00 20.1 2 Oeste 6 Oeste 0 -- -- 78
2017-07-31 00:00:00 21.2 4 Oeste 9 Oeste 0 -- -- 78
2017-07-30 23:00:00 22.3 5 Oeste 8 Oeste 0 -- -- 76
2017-07-30 22:00:00 23.5 2 Sudoeste 6 Sur 0 -- -- 78
2017-07-30 21:00:00 25.4 0 Calma 6 Noroeste 0 -- -- 73
2017-07-30 20:00:00 26.1 3 Sur 12 Este 0 -- -- 76
2017-07-30 19:00:00 25.8 5 Este 15 Este 0 -- -- 81
2017-07-30 18:00:00 25.7 8 Este 19 Este 0 -- -- 80
2017-07-30 17:00:00 25.7 10 Este 23 Este 0 -- -- 79
2017-07-30 16:00:00 26.5 15 Este 26 Este 0 -- -- 74
2017-07-30 15:00:00 27.1 13 Este 24 Nordeste 0 -- -- 70
2017-07-30 14:00:00 26.3 15 Este 26 Este 0 -- -- 75
2017-07-30 13:00:00 26.6 14 Este 23 Este 0 -- -- 74
2017-07-30 12:00:00 26.4 10 Este 21 Nordeste 0 -- -- 76
2017-07-30 11:00:00 26.9 9 Este 19 Este 0 -- -- 76
2017-07-30 10:00:00 26 6 Este 13 Este 0 -- -- 79
2017-07-30 09:00:00 23 2 Oeste 10 Oeste 0 -- -- 84
2017-07-30 08:00:00 21.3 4 Oeste 11 Oeste 0 -- -- 88
2017-07-30 07:00:00 20.4 5 Oeste 9 Oeste 0 -- -- 92
2017-07-30 06:00:00 20.7 4 Oeste 8 Oeste 0 -- -- 91
2017-07-30 05:00:00 20.8 4 Oeste 8 Oeste 0 -- -- 90
2017-07-30 04:00:00 21.4 4 Oeste 9 Oeste 0 -- -- 89
2017-07-30 03:00:00 22.1 4 Oeste 12 Oeste 0 -- -- 86
2017-07-30 02:00:00 24 3 Sudoeste 8 Sur 0 -- -- 83
2017-07-30 01:00:00 25.1 3 Norte 16 Sur 0 -- -- 82
2017-07-30 00:00:00 25.3 6 Sudoeste 20 Sur 0 -- -- 80
2017-07-29 23:00:00 25.4 9 Sudoeste 23 Sudoeste 0 -- -- 82
2017-07-29 22:00:00 25.7 8 Sur 22 Sur 0 -- -- 78
2017-07-29 21:00:00 26.2 9 Sur 25 Sur 0 -- -- 80
2017-07-29 20:00:00 26.7 9 Sur 26 Sudoeste 0 -- -- 78
2017-07-29 19:00:00 27.4 10 Sur 28 Sudoeste 0 -- -- 73
2017-07-29 18:00:00 27.7 14 Sur 33 Sur 0 -- -- 66
2017-07-29 17:00:00 28.2 16 Sur 31 Sudeste 0 -- -- 63
2017-07-29 16:00:00 28 19 Sur 33 Sur 0 -- -- 61
2017-07-29 15:00:00 28.5 16 Sur 37 Sur 0 -- -- 60
2017-07-29 14:00:00 28.9 13 Sur 34 Sur 0 -- -- 59
2017-07-29 13:00:00 28.3 10 Sur 23 Sudeste 0 -- -- 67
2017-07-29 12:00:00 28 13 Sudeste 21 Sur 0 -- -- 61
2017-07-29 11:00:00 27.8 9 Sur 17 Sudeste 0 -- -- 58
2017-07-29 10:00:00 27.1 7 Sur 14 Sudeste 0 -- -- 59
2017-07-29 09:00:00 23.8 6 Oeste 13 Oeste 0 -- -- 75
2017-07-29 08:00:00 20.5 4 Oeste 12 Oeste 0 -- -- 83
2017-07-29 07:00:00 18.9 4 Oeste 11 Oeste 0 -- -- 88
2017-07-29 06:00:00 19.4 5 Oeste 12 Oeste 0 -- -- 87
2017-07-29 05:00:00 19.7 6 Oeste 15 Sudoeste 0 -- -- 86
2017-07-29 04:00:00 19.8 6 Oeste 14 Sudoeste 0 -- -- 85
2017-07-29 03:00:00 20.2 5 Sudoeste 11 Oeste 0 -- -- 84
2017-07-29 02:00:00 20.5 4 Oeste 11 Oeste 0 -- -- 82
2017-07-29 01:00:00 21.2 3 Oeste 10 Sudoeste 0 -- -- 81
2017-07-29 00:00:00 21.8 3 Oeste 8 Oeste 0 -- -- 79
2017-07-28 23:00:00 22.5 3 Oeste 5 Oeste 0 -- -- 77
2017-07-28 22:00:00 23.7 3 Oeste 5 Este 0 -- -- 74
2017-07-28 21:00:00 24.9 3 Este 12 Sudeste 0 -- -- 70
2017-07-28 20:00:00 25.6 6 Este 14 Este 0 -- -- 65
2017-07-28 19:00:00 26.2 9 Sudeste 18 Sudeste 0 -- -- 65
2017-07-28 18:00:00 26.9 9 Sur 23 Sur 0 -- -- 65
2017-07-28 17:00:00 27.4 12 Sur 23 Sudeste 0 -- -- 61
2017-07-28 16:00:00 27.6 9 Sur 26 Sudeste 0 -- -- 63
2017-07-28 15:00:00 26.9 17 Sudeste 28 Sudoeste 0 -- -- 67
2017-07-28 14:00:00 27.9 17 Sur 28 Sur 0 -- -- 60
2017-07-28 13:00:00 28.3 10 Sur 23 Sudoeste 0 -- -- 59
2017-07-28 12:00:00 27.8 10 Sudoeste 23 Sudoeste 0 -- -- 61
2017-07-28 11:00:00 26.5 9 Sur 17 Sudeste 0 -- -- 72
2017-07-28 10:00:00 27.1 5 Sur 16 Sudeste 0 -- -- 66
2017-07-28 09:00:00 24.5 5 Oeste 12 Oeste 0 -- -- 78
2017-07-28 08:00:00 21.7 4 Oeste 10 Sudoeste 0 -- -- 86
2017-07-28 07:00:00 20.2 4 Oeste 10 Oeste 0 -- -- 91
2017-07-28 06:00:00 20.2 4 Oeste 10 Oeste 0 -- -- 90
2017-07-28 05:00:00 20.4 4 Oeste 10 Oeste 0 -- -- 90
2017-07-28 04:00:00 20.9 4 Oeste 8 Oeste 0 -- -- 89
2017-07-28 03:00:00 21.7 3 Oeste 7 Oeste 0 -- -- 87
2017-07-28 02:00:00 22.2 4 Oeste 10 Sudoeste 0 -- -- 87
2017-07-28 01:00:00 23 4 Oeste 8 Oeste 0 -- -- 84
2017-07-28 00:00:00 23.8 3 Oeste 8 Oeste 0 -- -- 82
2017-07-27 23:00:00 24.6 3 Oeste 6 Oeste 0 -- -- 80
2017-07-27 22:00:00 25.6 0 Calma 14 Sudoeste 0 -- -- 77
2017-07-27 21:00:00 26.3 8 Sur 16 Sur 0 -- -- 75
2017-07-27 20:00:00 27.2 7 Sur 22 Sur 0 -- -- 71
2017-07-27 19:00:00 27.5 15 Sur 30 Sur 0 -- -- 70
2017-07-27 18:00:00 28.2 15 Sur 33 Sudoeste 0 -- -- 67
2017-07-27 17:00:00 28.1 16 Sur 31 Sur 0 -- -- 67
2017-07-27 16:00:00 28.1 18 Sur 34 Sur 0 -- -- 60
2017-07-27 15:00:00 27.8 19 Sur 36 Sur 0 -- -- 61
2017-07-27 14:00:00 27.4 15 Sur 32 Sur 0 -- -- 62
2017-07-27 13:00:00 27.7 11 Sur 24 Sur 0 -- -- 59
2017-07-27 12:00:00 26.4 13 Sur 23 Sur 0 -- -- 42
2017-07-27 11:00:00 26 9 Sudeste 18 Este 0 -- -- 44
2017-07-27 10:00:00 25.6 6 Sudeste 13 Sudeste 0 -- -- 39
2017-07-27 09:00:00 22.3 4 Oeste 11 Oeste 0 -- -- 55
2017-07-27 08:00:00 18.7 5 Oeste 11 Oeste 0 -- -- 67
2017-07-27 07:00:00 17.6 5 Oeste 10 Oeste 0 -- -- 70
2017-07-27 06:00:00 17.8 4 Oeste 13 Sudoeste 0 -- -- 69
2017-07-27 05:00:00 18 5 Oeste 10 Oeste 0 -- -- 69
2017-07-27 04:00:00 18.4 5 Oeste 9 Oeste 0 -- -- 67
2017-07-27 03:00:00 18.9 5 Oeste 10 Oeste 0 -- -- 66
2017-07-27 02:00:00 19.2 4 Oeste 10 Sudoeste 0 -- -- 64
2017-07-27 01:00:00 19.8 3 Oeste 9 Oeste 0 -- -- 61
2017-07-27 00:00:00 20.5 3 Oeste 8 Oeste 0 -- -- 58
2017-07-26 23:00:00 21.2 3 Oeste 6 Sudoeste 0 -- -- 55
2017-07-26 22:00:00 22.3 0 Calma 5 Sudoeste 0 -- -- 49
2017-07-26 21:00:00 23.5 3 Sudoeste 18 Sudoeste 0 -- -- 44
2017-07-26 20:00:00 24 8 Sur 22 Sur 0 -- -- 40
2017-07-26 19:00:00 24.2 12 Sur 20 Sudoeste 0 -- -- 38
2017-07-26 18:00:00 24.7 7 Sur 17 Sudeste 0 -- -- 33
2017-07-26 17:00:00 25.2 8 Sudeste 20 Sudeste 0 -- -- 29
2017-07-26 16:00:00 26 8 Este 22 Sudeste 0 -- -- 26
2017-07-26 15:00:00 26.1 9 Este 22 Sudeste 0 -- -- 23
2017-07-26 14:00:00 26.1 12 Este 24 Sudeste 0 -- -- 25
2017-07-26 13:00:00 26.1 10 Sudeste 21 Sudeste 0 -- -- 26
2017-07-26 12:00:00 26.3 5 Este 14 Nordeste 0 -- -- 22
2017-07-26 11:00:00 24.9 7 Norte 18 Norte 0 -- -- 25
2017-07-26 10:00:00 23 10 Norte 24 Noroeste 0 -- -- 28
2017-07-26 09:00:00 21 10 Noroeste 30 Noroeste 0 -- -- 34
2017-07-26 08:00:00 20.1 14 Noroeste 30 Norte 0 -- -- 35
2017-07-26 07:00:00 18.8 5 Oeste 14 Sudoeste 0 -- -- 45
2017-07-26 06:00:00 19.4 7 Oeste 33 Oeste 0 -- -- 45
2017-07-26 05:00:00 20.1 14 Norte 32 Noroeste 0 -- -- 39
2017-07-26 04:00:00 19.2 4 Noroeste 17 Noroeste 0 -- -- 61
2017-07-26 03:00:00 19.7 2 Oeste 10 Oeste 9.2 -- -- 69
2017-07-26 02:00:00 21 8 Oeste 15 Oeste 1.2 -- -- 65
2017-07-26 01:00:00 21.5 0 Calma 7 Oeste 0 -- -- 60
2017-07-26 00:00:00 21.8 3 Oeste 9 Oeste 0 -- -- 59
2017-07-25 23:00:00 22.9 5 Oeste 12 Oeste 0 -- -- 50
2017-07-25 22:00:00 23.4 2 Oeste 10 Sudoeste 0 -- -- 42
2017-07-25 21:00:00 23.5 2 Sudoeste 10 Sudoeste 0 -- -- 41
2017-07-25 20:00:00 24.1 6 Sur 18 Sudoeste 0 -- -- 35
2017-07-25 19:00:00 24.9 10 Sur 17 Sur 0 -- -- 36
2017-07-25 18:00:00 25.7 9 Sur 21 Sudeste 0 -- -- 30
2017-07-25 17:00:00 26.3 12 Sur 23 Sur 0 -- -- 27
2017-07-25 16:00:00 26.5 10 Sur 22 Sur 0 -- -- 26
2017-07-25 15:00:00 25.6 4 Sudeste 24 Sur 0 -- -- 28
2017-07-25 14:00:00 27 8 Sudeste 25 Sudeste 0 -- -- 23
2017-07-25 13:00:00 28.5 10 Sur 24 Sudeste 0 -- -- 17
2017-07-25 12:00:00 28.3 10 Sudeste 21 Nordeste 0 -- -- 16
2017-07-25 11:00:00 27.5 8 Nordeste 17 Este 0 -- -- 12
2017-07-25 10:00:00 25.3 4 Sur 17 Oeste 0 -- -- 17
2017-07-25 09:00:00 23.6 9 Oeste 22 Noroeste 0 -- -- 24
2017-07-25 08:00:00 21.5 11 Noroeste 31 Norte 0 -- -- 26
2017-07-25 07:00:00 20.4 18 Norte 38 Norte 0 -- -- 31
2017-07-25 06:00:00 20.4 14 Norte 39 Norte 0 -- -- 34
2017-07-25 05:00:00 20.9 18 Norte 37 Norte 0 -- -- 33
2017-07-25 04:00:00 21.4 13 Noroeste 32 Noroeste 0 -- -- 34
2017-07-25 03:00:00 21.9 13 Noroeste 36 Noroeste 0 -- -- 33
2017-07-25 02:00:00 22 14 Norte 27 Norte 0 -- -- 32
2017-07-25 01:00:00 22.4 10 Noroeste 24 Noroeste 0 -- -- 33
2017-07-25 00:00:00 23 6 Sudeste 21 Este 0 -- -- 34
2017-07-24 23:00:00 24.2 9 Este 17 Este 0 -- -- 35
2017-07-24 22:00:00 24.3 7 Este 12 Este 0 -- -- 53
2017-07-24 21:00:00 24.4 7 Este 14 Sudeste 0 -- -- 53
2017-07-24 20:00:00 25 6 Este 15 Este 0 -- -- 50
2017-07-24 19:00:00 25.4 8 Sudeste 18 Sudeste 0 -- -- 49
2017-07-24 18:00:00 26.2 11 Sudeste 22 Sudeste 0 -- -- 45
2017-07-24 17:00:00 26.7 12 Sudeste 26 Sudeste 0 -- -- 42
2017-07-24 16:00:00 26.6 13 Sudeste 26 Este 0 -- -- 41
2017-07-24 15:00:00 27 13 Sudeste 25 Sudeste 0 -- -- 40
2017-07-24 14:00:00 26.4 13 Sudeste 23 Sudeste 0 -- -- 41
2017-07-24 13:00:00 26.1 10 Sudeste 21 Sudeste 0 -- -- 41
2017-07-24 12:00:00 25.8 9 Sudeste 18 Sudeste 0 -- -- 41
2017-07-24 11:00:00 25 7 Este 15 Este 0 -- -- 45
2017-07-24 10:00:00 23.6 6 Este 12 Este 0 -- -- 52
2017-07-24 09:00:00 21.3 3 Este 10 Nordeste 0 -- -- 64
2017-07-24 08:00:00 18.4 5 Oeste 10 Oeste 0 -- -- 68
2017-07-24 07:00:00 17.6 5 Oeste 10 Oeste 0 -- -- 70
2017-07-24 06:00:00 17.8 4 Oeste 10 Oeste 0 -- -- 69
2017-07-24 05:00:00 18.4 6 Oeste 10 Oeste 0 -- -- 69
2017-07-24 04:00:00 18.5 4 Oeste 11 Sudoeste 0 -- -- 70
2017-07-24 03:00:00 18.6 4 Oeste 12 Sudoeste 0 -- -- 68
2017-07-24 02:00:00 19.1 6 Sudoeste 13 Sudoeste 0 -- -- 66
2017-07-24 01:00:00 19.7 4 Oeste 20 Oeste 0 -- -- 63
2017-07-24 00:00:00 20.4 9 Oeste 18 Oeste 0 -- -- 61
2017-07-23 23:00:00 21.3 10 Oeste 19 Oeste 0 -- -- 55
2017-07-23 22:00:00 22.1 11 Norte 27 Norte 0 -- -- 52
2017-07-23 21:00:00 23.6 7 Norte 16 Norte 0 -- -- 51
2017-07-23 20:00:00 24.6 3 Sudeste 10 Sudeste 0 -- -- 45
2017-07-23 19:00:00 25 5 Sudeste 13 Sudeste 0.2 -- -- 44
2017-07-23 18:00:00 24.9 5 Este 26 Este 0.4 -- -- 52
2017-07-23 17:00:00 26.1 7 Este 21 Este 0 -- -- 35
2017-07-23 16:00:00 25.1 11 Este 27 Este 0 -- -- 40
2017-07-23 15:00:00 26.8 13 Este 28 Este 0 -- -- 37
2017-07-23 14:00:00 27 15 Este 27 Este 0 -- -- 34
2017-07-23 13:00:00 27.9 11 Este 25 Este 0 -- -- 33
2017-07-23 12:00:00 27.5 14 Este 22 Este 0 -- -- 33
2017-07-23 11:00:00 28.1 9 Este 18 Sudeste 0 -- -- 31
2017-07-23 10:00:00 27.8 5 Nordeste 18 Este 0 -- -- 28
2017-07-23 09:00:00 26.3 0 Calma 9 Oeste 0 -- -- 35
2017-07-23 08:00:00 23.6 3 Oeste 9 Oeste 0 -- -- 48
2017-07-23 07:00:00 22.7 5 Oeste 10 Oeste 0 -- -- 54
2017-07-23 06:00:00 23.4 2 Norte 9 Oeste 0 -- -- 52
2017-07-23 05:00:00 23.7 5 Oeste 12 Noroeste 0 -- -- 57
2017-07-23 04:00:00 23.5 6 Oeste 10 Oeste 0 -- -- 60
2017-07-23 03:00:00 23.6 4 Este 15 Este 0 -- -- 57
2017-07-23 02:00:00 23.9 8 Este 21 Este 0 -- -- 59
2017-07-23 01:00:00 24.4 8 Este 18 Este 0 -- -- 58
2017-07-23 00:00:00 23.7 2 Sudoeste 7 Sur 0 -- -- 60
2017-07-22 23:00:00 24.8 2 Sur 9 Norte 0 -- -- 56
2017-07-22 22:00:00 25.8 7 Oeste 20 Sudoeste 0 -- -- 53
2017-07-22 21:00:00 26.5 5 Sudoeste 21 Sur 0 -- -- 51
2017-07-22 20:00:00 26.8 6 Sudoeste 25 Sur 0 -- -- 54
2017-07-22 19:00:00 26.9 11 Sur 23 Sur 0 -- -- 53
2017-07-22 18:00:00 27.6 8 Sur 30 Sudeste 0 -- -- 47
2017-07-22 17:00:00 27.9 10 Sur 29 Sur 0 -- -- 46
2017-07-22 16:00:00 28.1 14 Sur 27 Sur 0 -- -- 45
2017-07-22 15:00:00 27.3 11 Sur 22 Sur 0 -- -- 48
2017-07-22 14:00:00 26.9 8 Sur 22 Sur 0 -- -- 45
2017-07-22 13:00:00 26.8 9 Sudeste 23 Sur 0 -- -- 43
2017-07-22 12:00:00 26.9 9 Sudeste 20 Sudeste 0 -- -- 41
2017-07-22 11:00:00 26.8 8 Sudeste 16 Sudeste 0 -- -- 40
2017-07-22 10:00:00 26 6 Este 12 Nordeste 0 -- -- 45
2017-07-22 09:00:00 23.6 4 Sudoeste 12 Oeste 0 -- -- 53
2017-07-22 08:00:00 20.3 5 Oeste 14 Oeste 0 -- -- 65
2017-07-22 07:00:00 18.6 4 Sudoeste 10 Oeste 0 -- -- 69
2017-07-22 06:00:00 18.7 4 Oeste 11 Oeste 0 -- -- 69
2017-07-22 05:00:00 19.3 3 Oeste 10 Oeste 0 -- -- 67
2017-07-22 04:00:00 20 4 Oeste 10 Oeste 0 -- -- 66
2017-07-22 03:00:00 20.3 3 Oeste 8 Oeste 0 -- -- 65
2017-07-22 02:00:00 20.6 4 Oeste 13 Sudoeste 0 -- -- 63
2017-07-22 01:00:00 20.9 4 Oeste 8 Oeste 0 -- -- 60
2017-07-22 00:00:00 21.7 3 Oeste 5 Oeste 0 -- -- 58